Observation data for Ralls on 08/14/2019      Previous  Date  Next       Current Mesonet Observations  Soil Data  Daily Summary Page  Observations in Plain Language
KRLS 140500Z 06007KT 25/16 A3014 RMK A01 T02510163  RH  061%=      5-min Rain = 0
KRLS 140505Z 07007KT 25/16 A3013 RMK A01 T02510163  RH  061%=      5-min Rain = 0
KRLS 140510Z 07006KT 25/16 A3013 RMK A01 T02510164  RH  061%=      5-min Rain = 0
KRLS 140515Z 08006KT 25/16 A3013 RMK A01 T02500164  RH  062%=      5-min Rain = 0
KRLS 140520Z 08006KT 25/16 A3013 RMK A01 T02480162  RH  061%=      5-min Rain = 0
KRLS 140525Z 08006KT 25/16 A3013 RMK A01 T02460161  RH  062%=      5-min Rain = 0
KRLS 140530Z 07006KT 25/16 A3013 RMK A01 T02460162  RH  063%=      5-min Rain = 0
KRLS 140535Z 06006KT 25/16 A3013 RMK A01 T02460163  RH  063%=      5-min Rain = 0
KRLS 140540Z 06007KT 25/16 A3013 RMK A01 T02450161  RH  063%=      5-min Rain = 0
KRLS 140545Z 06007KT 24/16 A3013 RMK A01 T02430161  RH  063%=      5-min Rain = 0
KRLS 140550Z 06006KT 24/16 A3013 RMK A01 T02420162  RH  064%=      5-min Rain = 0
KRLS 140555Z 06007KT 24/16 A3014 RMK A01 T02420162  RH  064%=      5-min Rain = 0
KRLS 140600Z 07007KT 24/16 A3014 RMK A01 T02420162  RH  064%=      5-min Rain = 0
KRLS 140605Z 07006KT 24/16 A3013 RMK A01 T02420163  RH  064%=      5-min Rain = 0
KRLS 140610Z 07006KT 24/16 A3014 RMK A01 T02420164  RH  065%=      5-min Rain = 0
KRLS 140615Z 07007KT 24/16 A3014 RMK A01 T02420164  RH  065%=      5-min Rain = 0
KRLS 140620Z 06007KT 24/16 A3014 RMK A01 T02420164  RH  065%=      5-min Rain = 0
KRLS 140625Z 05007KT 24/16 A3014 RMK A01 T02400164  RH  065%=      5-min Rain = 0
KRLS 140630Z 05007KT 24/16 A3014 RMK A01 T02400163  RH  065%=      5-min Rain = 0
KRLS 140635Z 05006KT 24/16 A3014 RMK A01 T02390164  RH  066%=      5-min Rain = 0
KRLS 140640Z 07006KT 24/17 A3015 RMK A01 T02380165  RH  067%=      5-min Rain = 0
KRLS 140645Z 06007KT 24/17 A3015 RMK A01 T02380166  RH  067%=      5-min Rain = 0
KRLS 140650Z 05008KT 24/17 A3015 RMK A01 T02390165  RH  066%=      5-min Rain = 0
KRLS 140655Z 05009KT 24/16 A3016 RMK A01 T02410164  RH  065%=      5-min Rain = 0
KRLS 140700Z 06010KT 24/17 A3016 RMK A01 T02430165  RH  065%=      5-min Rain = 0
KRLS 140705Z 05009KT 24/17 A3016 RMK A01 T02430165  RH  065%=      5-min Rain = 0
KRLS 140710Z 06010KT 24/17 A3015 RMK A01 T02430165  RH  065%=      5-min Rain = 0
KRLS 140715Z 07009KT 24/17 A3015 RMK A01 T02430166  RH  065%=      5-min Rain = 0
KRLS 140720Z 07010KT 24/17 A3014 RMK A01 T02430166  RH  065%=      5-min Rain = 0
KRLS 140725Z 06009KT 24/17 A3014 RMK A01 T02420166  RH  066%=      5-min Rain = 0
KRLS 140730Z 06010KT 24/17 A3014 RMK A01 T02400166  RH  066%=      5-min Rain = 0
KRLS 140735Z 05010KT 24/17 A3015 RMK A01 T02400166  RH  067%=      5-min Rain = 0
KRLS 140740Z 05009KT 24/17 A3015 RMK A01 T02390166  RH  067%=      5-min Rain = 0
KRLS 140745Z 06009KT 24/17 A3015 RMK A01 T02390166  RH  067%=      5-min Rain = 0
KRLS 140750Z 07009KT 24/17 A3015 RMK A01 T02390167  RH  067%=      5-min Rain = 0
KRLS 140755Z 06008KT 24/17 A3015 RMK A01 T02380166  RH  068%=      5-min Rain = 0
KRLS 140800Z 06008KT 24/17 A3015 RMK A01 T02360167  RH  068%=      5-min Rain = 0
KRLS 140805Z 06008KT 24/17 A3015 RMK A01 T02350167  RH  069%=      5-min Rain = 0
KRLS 140810Z 06008KT 23/17 A3014 RMK A01 T02340167  RH  069%=      5-min Rain = 0
KRLS 140815Z 06009KT 23/17 A3014 RMK A01 T02340167  RH  069%=      5-min Rain = 0
KRLS 140820Z 05008KT 23/17 A3014 RMK A01 T02330166  RH  069%=      5-min Rain = 0
KRLS 140825Z 06009KT 23/17 A3014 RMK A01 T02330166  RH  070%=      5-min Rain = 0
KRLS 140830Z 07009KT 23/17 A3014 RMK A01 T02320167  RH  070%=      5-min Rain = 0
KRLS 140835Z 07010G15KT 23/17 A3014 RMK A01 T02320166  RH  070%=      5-min Rain = 0
KRLS 140840Z 06010KT 23/17 A3014 RMK A01 T02320166  RH  069%=      5-min Rain = 0
KRLS 140845Z 06010KT 23/17 A3014 RMK A01 T02310165  RH  070%=      5-min Rain = 0
KRLS 140850Z 07009KT 23/17 A3014 RMK A01 T02310166  RH  070%=      5-min Rain = 0
KRLS 140855Z 07008KT 23/17 A3014 RMK A01 T02300166  RH  070%=      5-min Rain = 0
KRLS 140900Z 07007KT 23/17 A3013 RMK A01 T02290165  RH  071%=      5-min Rain = 0
KRLS 140905Z 06007KT 23/17 A3014 RMK A01 T02280165  RH  071%=      5-min Rain = 0
KRLS 140910Z 06007KT 23/17 A3014 RMK A01 T02260165  RH  072%=      5-min Rain = 0
KRLS 140915Z 05006KT 23/16 A3014 RMK A01 T02250164  RH  072%=      5-min Rain = 0
KRLS 140920Z 05005KT 22/16 A3014 RMK A01 T02240163  RH  072%=      5-min Rain = 0
KRLS 140925Z 04007KT 22/16 A3014 RMK A01 T02240163  RH  072%=      5-min Rain = 0
KRLS 140930Z 04008KT 23/16 A3014 RMK A01 T02260163  RH  071%=      5-min Rain = 0
KRLS 140935Z 04007KT 23/16 A3014 RMK A01 T02260163  RH  071%=      5-min Rain = 0
KRLS 140940Z 05007KT 23/16 A3014 RMK A01 T02260163  RH  071%=      5-min Rain = 0
KRLS 140945Z 06007KT 23/16 A3014 RMK A01 T02260163  RH  071%=      5-min Rain = 0
KRLS 140950Z 04009KT 22/16 A3014 RMK A01 T02240163  RH  072%=      5-min Rain = 0
KRLS 140955Z 04011G16KT 23/16 A3015 RMK A01 T02250163  RH  071%=      5-min Rain = 0
KRLS 141000Z 05011G16KT 23/16 A3015 RMK A01 T02270162  RH  070%=      5-min Rain = 0
KRLS 141005Z 04011G16KT 23/16 A3016 RMK A01 T02270160  RH  069%=      5-min Rain = 0
KRLS 141010Z 04011KT 23/16 A3015 RMK A01 T02260160  RH  069%=      5-min Rain = 0
KRLS 141015Z 04011KT 23/16 A3016 RMK A01 T02250160  RH  070%=      5-min Rain = 0
KRLS 141020Z 03013G18KT 22/16 A3016 RMK A01 T02240159  RH  070%=      5-min Rain = 0
KRLS 141025Z 03014KT 22/16 A3016 RMK A01 T02210162  RH  072%=      5-min Rain = 0
KRLS 141030Z 03014G21KT 22/16 A3016 RMK A01 T02190164  RH  075%=      5-min Rain = 0
KRLS 141035Z 03013KT 22/17 A3016 RMK A01 T02170165  RH  076%=      5-min Rain = 0
KRLS 141040Z 03015G21KT 21/16 A3017 RMK A01 T02140163  RH  077%=      5-min Rain = 0
KRLS 141045Z 03015G20KT 21/16 A3017 RMK A01 T02130163  RH  077%=      5-min Rain = 0
KRLS 141050Z 03015G20KT 21/16 A3017 RMK A01 T02120162  RH  077%=      5-min Rain = 0
KRLS 141055Z 03013G18KT 21/16 A3017 RMK A01 T02110160  RH  076%=      5-min Rain = 0
KRLS 141100Z 03014G19KT 21/16 A3018 RMK A01 T02110158  RH  075%=      5-min Rain = 0
KRLS 141105Z 03014G19KT 21/16 A3018 RMK A01 T02100155  RH  074%=      5-min Rain = 0
KRLS 141110Z 03014KT 21/15 A3018 RMK A01 T02090153  RH  074%=      5-min Rain = 0
KRLS 141115Z 03015G21KT 21/15 A3018 RMK A01 T02070151  RH  074%=      5-min Rain = 0
KRLS 141120Z 03017G24KT 21/15 A3018 RMK A01 T02050147  RH  073%=      5-min Rain = 0
KRLS 141125Z 03014G20KT 20/14 A3018 RMK A01 T02020144  RH  072%=      5-min Rain = 0
KRLS 141130Z 03014G19KT 20/14 A3018 RMK A01 T02000140  RH  072%=      5-min Rain = 0
KRLS 141135Z 03013KT 20/14 A3019 RMK A01 T01980139  RH  072%=      5-min Rain = 0
KRLS 141140Z 03013G18KT 20/14 A3019 RMK A01 T01970138  RH  072%=      5-min Rain = 0
KRLS 141145Z 03012KT 20/14 A3019 RMK A01 T01960138  RH  072%=      5-min Rain = 0
KRLS 141150Z 03013KT 20/14 A3019 RMK A01 T01950137  RH  072%=      5-min Rain = 0
KRLS 141155Z 02012KT 19/14 A302 RMK A01 T01940137  RH  072%=      5-min Rain = 0
KRLS 141200Z 02013KT 19/14 A302 RMK A01 T01940137  RH  072%=      5-min Rain = 0
KRLS 141205Z 02015KT 19/14 A302 RMK A01 T01940137  RH  072%=      5-min Rain = 0
KRLS 141210Z 02013G18KT 19/14 A302 RMK A01 T01940137  RH  073%=      5-min Rain = 0
KRLS 141215Z 02014KT 19/14 A302 RMK A01 T01940137  RH  073%=      5-min Rain = 0
KRLS 141220Z 02013G18KT 19/14 A302 RMK A01 T01930137  RH  073%=      5-min Rain = 0
KRLS 141225Z 02011KT 19/14 A302 RMK A01 T01930137  RH  073%=      5-min Rain = 0
KRLS 141230Z 01012G17KT 19/14 A302 RMK A01 T01940137  RH  072%=      5-min Rain = 0
KRLS 141235Z 02013KT 19/14 A302 RMK A01 T01940136  RH  072%=      5-min Rain = 0
KRLS 141240Z 02013KT 20/14 A3021 RMK A01 T01950136  RH  072%=      5-min Rain = 0
KRLS 141245Z 01014KT 20/14 A3021 RMK A01 T01950137  RH  072%=      5-min Rain = 0
KRLS 141250Z 01014KT 20/14 A3021 RMK A01 T01980137  RH  071%=      5-min Rain = 0
KRLS 141255Z 01014G19KT 20/14 A3021 RMK A01 T02000138  RH  070%=      5-min Rain = 0
KRLS 141300Z 02012KT 20/14 A3022 RMK A01 T02040139  RH  069%=      5-min Rain = 0
KRLS 141305Z 02012KT 21/14 A3022 RMK A01 T02050139  RH  069%=      5-min Rain = 0
KRLS 141310Z 02012KT 21/14 A3022 RMK A01 T02060140  RH  069%=      5-min Rain = 0
KRLS 141315Z 02013KT 21/14 A3023 RMK A01 T02080141  RH  068%=      5-min Rain = 0
KRLS 141320Z 02010G15KT 21/14 A3023 RMK A01 T02110142  RH  067%=      5-min Rain = 0
KRLS 141325Z 02012KT 21/14 A3023 RMK A01 T02130143  RH  067%=      5-min Rain = 0
KRLS 141330Z 02012G18KT 22/14 A3023 RMK A01 T02160144  RH  066%=      5-min Rain = 0
KRLS 141335Z 02010KT 22/15 A3023 RMK A01 T02190145  RH  065%=      5-min Rain = 0
KRLS 141340Z 02012KT 22/15 A3024 RMK A01 T02210145  RH  065%=      5-min Rain = 0
KRLS 141345Z 02013KT 22/15 A3024 RMK A01 T02230146  RH  065%=      5-min Rain = 0
KRLS 141350Z 02011G17KT 22/15 A3024 RMK A01 T02240147  RH  064%=      5-min Rain = 0
KRLS 141355Z 02012KT 23/15 A3024 RMK A01 T02250147  RH  064%=      5-min Rain = 0
KRLS 141400Z 01012KT 23/15 A3024 RMK A01 T02250147  RH  064%=      5-min Rain = 0
KRLS 141405Z 02010KT 23/15 A3024 RMK A01 T02300148  RH  063%=      5-min Rain = 0
KRLS 141410Z 03010KT 24/15 A3024 RMK A01 T02360149  RH  061%=      5-min Rain = 0
KRLS 141415Z 02013KT 24/15 A3024 RMK A01 T02380149  RH  060%=      5-min Rain = 0
KRLS 141420Z 02013KT 24/15 A3024 RMK A01 T02390148  RH  059%=      5-min Rain = 0
KRLS 141425Z 03013KT 24/15 A3024 RMK A01 T02400148  RH  059%=      5-min Rain = 0
KRLS 141430Z 04010KT 24/15 A3024 RMK A01 T02430149  RH  058%=      5-min Rain = 0
KRLS 141435Z 03010KT 25/15 A3024 RMK A01 T02450150  RH  058%=      5-min Rain = 0
KRLS 141440Z 02010KT 25/15 A3024 RMK A01 T02470151  RH  057%=      5-min Rain = 0
KRLS 141445Z 03011KT 25/15 A3025 RMK A01 T02500151  RH  056%=      5-min Rain = 0
KRLS 141450Z 02012KT 25/15 A3025 RMK A01 T02530150  RH  055%=      5-min Rain = 0
KRLS 141455Z 02012KT 26/15 A3025 RMK A01 T02560151  RH  055%=      5-min Rain = 0
KRLS 141500Z 02013KT 26/15 A3025 RMK A01 T02550150  RH  055%=      5-min Rain = 0
KRLS 141505Z 02013KT 25/15 A3025 RMK A01 T02540150  RH  055%=      5-min Rain = 0
KRLS 141510Z 02011KT 26/15 A3025 RMK A01 T02580150  RH  054%=      5-min Rain = 0
KRLS 141515Z 01013KT 26/15 A3025 RMK A01 T02590150  RH  054%=      5-min Rain = 0
KRLS 141520Z 02011KT 26/15 A3025 RMK A01 T02610153  RH  054%=      5-min Rain = 0
KRLS 141525Z 02011G16KT 27/15 A3024 RMK A01 T02700152  RH  051%=      5-min Rain = 0
KRLS 141530Z 02012G18KT 27/15 A3024 RMK A01 T02670151  RH  051%=      5-min Rain = 0
KRLS 141535Z 02012KT 27/15 A3024 RMK A01 T02660151  RH  051%=      5-min Rain = 0
KRLS 141540Z 02011KT 27/15 A3024 RMK A01 T02700152  RH  051%=      5-min Rain = 0
KRLS 141545Z 03013KT 27/15 A3024 RMK A01 T02680150  RH  050%=      5-min Rain = 0
KRLS 141550Z 03011G16KT 27/15 A3024 RMK A01 T02720151  RH  050%=      5-min Rain = 0
KRLS 141555Z 03011KT 27/15 A3024 RMK A01 T02700150  RH  050%=      5-min Rain = 0
KRLS 141600Z 04011KT 28/15 A3024 RMK A01 T02770151  RH  048%=      5-min Rain = 0
KRLS 141605Z 02012KT 27/15 A3024 RMK A01 T02740149  RH  048%=      5-min Rain = 0
KRLS 141610Z 03011G16KT 28/15 A3024 RMK A01 T02760150  RH  048%=      5-min Rain = 0
KRLS 141615Z 01011KT 28/15 A3024 RMK A01 T02800150  RH  047%=      5-min Rain = 0
KRLS 141620Z 04011KT 28/15 A3023 RMK A01 T02820150  RH  046%=      5-min Rain = 0
KRLS 141625Z 05010KT 28/15 A3023 RMK A01 T02790148  RH  047%=      5-min Rain = 0
KRLS 141630Z 04009G15KT 28/15 A3023 RMK A01 T02800151  RH  047%=      5-min Rain = 0
KRLS 141635Z 04009KT 28/15 A3023 RMK A01 T02800150  RH  047%=      5-min Rain = 0
KRLS 141640Z 05010KT 28/15 A3023 RMK A01 T02820148  RH  046%=      5-min Rain = 0
KRLS 141645Z 05009KT 28/15 A3022 RMK A01 T02800148  RH  046%=      5-min Rain = 0
KRLS 141650Z 06010KT 29/15 A3022 RMK A01 T02880148  RH  044%=      5-min Rain = 0
KRLS 141655Z 06009KT 29/15 A3021 RMK A01 T02900147  RH  043%=      5-min Rain = 0
KRLS 141700Z 06009G14KT 29/15 A3021 RMK A01 T02900146  RH  043%=      5-min Rain = 0
KRLS 141705Z 07010KT 29/14 A302 RMK A01 T02900141  RH  042%=      5-min Rain = 0
KRLS 141710Z 07008KT 29/15 A302 RMK A01 T02940146  RH  042%=      5-min Rain = 0
KRLS 141715Z 08009KT 30/14 A3019 RMK A01 T02990141  RH  040%=      5-min Rain = 0
KRLS 141720Z 08010KT 30/13 A3019 RMK A01 T03010134  RH  038%=      5-min Rain = 0
KRLS 141725Z 08008G13KT 30/14 A3019 RMK A01 T03000135  RH  038%=      5-min Rain = 0
KRLS 141730Z 07007G12KT 31/14 A3019 RMK A01 T03060135  RH  037%=      5-min Rain = 0
KRLS 141735Z 07007G13KT 31/13 A3019 RMK A01 T03090130  RH  035%=      5-min Rain = 0
KRLS 141740Z 06010G15KT 31/12 A3019 RMK A01 T03130115  RH  031%=      5-min Rain = 0
KRLS 141745Z 05010KT 32/12 A3018 RMK A01 T03170120  RH  031%=      5-min Rain = 0
KRLS 141750Z 07009G16KT 32/12 A3018 RMK A01 T03160121  RH  031%=      5-min Rain = 0
KRLS 141755Z 07009G15KT 32/11 A3018 RMK A01 T03240114  RH  029%=      5-min Rain = 0
KRLS 141800Z 08011G16KT 32/10 A3018 RMK A01 T03180100  RH  027%=      5-min Rain = 0
KRLS 141805Z 07010G15KT 32/11 A3017 RMK A01 T03210109  RH  028%=      5-min Rain = 0
KRLS 141810Z 06012KT 32/11 A3017 RMK A01 T03240105  RH  027%=      5-min Rain = 0
KRLS 141815Z 06010G17KT 32/11 A3018 RMK A01 T03180106  RH  028%=      5-min Rain = 0
KRLS 141820Z 06013G18KT 32/11 A3018 RMK A01 T03150108  RH  029%=      5-min Rain = 0
KRLS 141825Z 06012G18KT 32/11 A3018 RMK A01 T03230111  RH  028%=      5-min Rain = 0
KRLS 141830Z 06015G21KT 32/12 A3018 RMK A01 T03240116  RH  029%=      5-min Rain = 0
KRLS 141835Z 06013KT 32/12 A3018 RMK A01 T03230115  RH  029%=      5-min Rain = 0
KRLS 141840Z 04011KT 32/12 A3018 RMK A01 T03240116  RH  029%=      5-min Rain = 0
KRLS 141845Z 03010G15KT 33/12 A3018 RMK A01 T03250117  RH  029%=      5-min Rain = 0
KRLS 141850Z 03011G17KT 33/11 A3018 RMK A01 T03250113  RH  028%=      5-min Rain = 0
KRLS 141855Z 04012KT 32/11 A3017 RMK A01 T03240108  RH  027%=      5-min Rain = 0
KRLS 141900Z 03010G16KT 32/11 A3017 RMK A01 T03240109  RH  028%=      5-min Rain = 0
KRLS 141905Z 04013KT 33/11 A3017 RMK A01 T03320108  RH  026%=      5-min Rain = 0
KRLS 141910Z 04011KT 33/11 A3017 RMK A01 T03290109  RH  027%=      5-min Rain = 0
KRLS 141915Z 03010G19KT 33/11 A3017 RMK A01 T03330109  RH  026%=      5-min Rain = 0
KRLS 141920Z 04012KT 33/10 A3017 RMK A01 T03290103  RH  026%=      5-min Rain = 0
KRLS 141925Z 03013G18KT 33/10 A3017 RMK A01 T03320098  RH  025%=      5-min Rain = 0
KRLS 141930Z 02011KT 33/10 A3017 RMK A01 T03320101  RH  025%=      5-min Rain = 0
KRLS 141935Z 02011G18KT 33/10 A3017 RMK A01 T03330101  RH  025%=      5-min Rain = 0
KRLS 141940Z 01012G17KT 33/10 A3017 RMK A01 T03340098  RH  024%=      5-min Rain = 0
KRLS 141945Z 01009G14KT 33/09 A3016 RMK A01 T03320091  RH  023%=      5-min Rain = 0
KRLS 141950Z 02011G16KT 34/10 A3016 RMK A01 T03370102  RH  025%=      5-min Rain = 0
KRLS 141955Z 04011KT 33/11 A3016 RMK A01 T03340105  RH  026%=      5-min Rain = 0
KRLS 142000Z 04011G16KT 34/11 A3016 RMK A01 T03350106  RH  025%=      5-min Rain = 0
KRLS 142005Z 03010G16KT 33/10 A3015 RMK A01 T03340102  RH  025%=      5-min Rain = 0
KRLS 142010Z 03010KT 34/10 A3015 RMK A01 T03350104  RH  025%=      5-min Rain = 0
KRLS 142015Z 04009G15KT 33/10 A3014 RMK A01 T03340104  RH  025%=      5-min Rain = 0
KRLS 142020Z 03008KT 34/11 A3014 RMK A01 T03360109  RH  026%=      5-min Rain = 0
KRLS 142025Z 02009KT 34/11 A3014 RMK A01 T03370112  RH  026%=      5-min Rain = 0
KRLS 142030Z 03008G14KT 33/11 A3013 RMK A01 T03330113  RH  027%=      5-min Rain = 0
KRLS 142035Z 03007KT 33/11 A3013 RMK A01 T03330110  RH  027%=      5-min Rain = 0
KRLS 142040Z 03008KT 34/11 A3013 RMK A01 T03350108  RH  026%=      5-min Rain = 0
KRLS 142045Z 03008G13KT 34/11 A3013 RMK A01 T03390109  RH  026%=      5-min Rain = 0
KRLS 142050Z 06006KT 34/11 A3012 RMK A01 T03350112  RH  027%=      5-min Rain = 0
KRLS 142055Z 06008G14KT 34/11 A3012 RMK A01 T03360114  RH  027%=      5-min Rain = 0
KRLS 142100Z 09008KT 34/12 A3011 RMK A01 T03370115  RH  027%=      5-min Rain = 0
KRLS 142105Z 07008G13KT 34/12 A3011 RMK A01 T03370116  RH  027%=      5-min Rain = 0
KRLS 142110Z 08008G13KT 34/11 A301 RMK A01 T03380113  RH  026%=      5-min Rain = 0
KRLS 142115Z 09009G14KT 34/11 A301 RMK A01 T03370112  RH  026%=      5-min Rain = 0
KRLS 142120Z 08010KT 34/12 A301 RMK A01 T03370118  RH  027%=      5-min Rain = 0
KRLS 142125Z 06009KT 34/12 A301 RMK A01 T03420123  RH  028%=      5-min Rain = 0
KRLS 142130Z 04010G15KT 34/12 A301 RMK A01 T03400120  RH  027%=      5-min Rain = 0
KRLS 142135Z 04008KT 34/12 A301 RMK A01 T03400123  RH  028%=      5-min Rain = 0
KRLS 142140Z 06005G10KT 34/12 A301 RMK A01 T03360124  RH  029%=      5-min Rain = 0
KRLS 142145Z 10006G11KT 34/12 A301 RMK A01 T03400121  RH  028%=      5-min Rain = 0
KRLS 142150Z 08010KT 34/12 A301 RMK A01 T03410122  RH  028%=      5-min Rain = 0
KRLS 142155Z 07008KT 34/12 A301 RMK A01 T03410124  RH  028%=      5-min Rain = 0
KRLS 142200Z 05008G14KT 34/12 A301 RMK A01 T03420121  RH  027%=      5-min Rain = 0
KRLS 142205Z 03009KT 34/12 A301 RMK A01 T03410115  RH  026%=      5-min Rain = 0
KRLS 142210Z 02006KT 34/11 A301 RMK A01 T03400111  RH  026%=      5-min Rain = 0
KRLS 142215Z 08007G13KT 34/11 A301 RMK A01 T03390113  RH  026%=      5-min Rain = 0
KRLS 142220Z 06010G16KT 35/12 A301 RMK A01 T03470116  RH  026%=      5-min Rain = 0
KRLS 142225Z 05008KT 35/11 A301 RMK A01 T03450113  RH  025%=      5-min Rain = 0
KRLS 142230Z 08008KT 34/11 A3009 RMK A01 T03430109  RH  025%=      5-min Rain = 0
KRLS 142235Z 09007G13KT 34/11 A3009 RMK A01 T03390106  RH  025%=      5-min Rain = 0
KRLS 142240Z 10006KT 34/11 A3009 RMK A01 T03390105  RH  025%=      5-min Rain = 0
KRLS 142245Z 04008KT 34/11 A3009 RMK A01 T03420109  RH  025%=      5-min Rain = 0
KRLS 142250Z 02005KT 34/11 A3009 RMK A01 T03400107  RH  025%=      5-min Rain = 0
KRLS 142255Z 00004KT 34/11 A3009 RMK A01 T03440107  RH  024%=      5-min Rain = 0
KRLS 142300Z 04007G12KT 34/11 A3009 RMK A01 T03430108  RH  025%=      5-min Rain = 0
KRLS 142305Z 03009KT 34/11 A3009 RMK A01 T03410105  RH  025%=      5-min Rain = 0
KRLS 142310Z 03006KT 34/11 A3009 RMK A01 T03380106  RH  025%=      5-min Rain = 0
KRLS 142315Z 07006KT 34/11 A3009 RMK A01 T03420108  RH  025%=      5-min Rain = 0
KRLS 142320Z 04007KT 34/11 A3009 RMK A01 T03400105  RH  025%=      5-min Rain = 0
KRLS 142325Z 03007KT 34/10 A3009 RMK A01 T03390103  RH  024%=      5-min Rain = 0
KRLS 142330Z 02005G10KT 34/10 A3009 RMK A01 T03360103  RH  025%=      5-min Rain = 0
KRLS 142335Z 04009KT 34/11 A3009 RMK A01 T03380107  RH  025%=      5-min Rain = 0
KRLS 142340Z 06006KT 34/11 A3009 RMK A01 T03370105  RH  025%=      5-min Rain = 0
KRLS 142345Z 06005KT 34/10 A3009 RMK A01 T03360104  RH  025%=      5-min Rain = 0
KRLS 142350Z 03006KT 34/11 A3009 RMK A01 T03360105  RH  025%=      5-min Rain = 0
KRLS 142355Z 04005KT 34/10 A3009 RMK A01 T03370104  RH  025%=      5-min Rain = 0
KRLS 150000Z 04005KT 34/11 A3009 RMK A01 T03350105  RH  025%=      5-min Rain = 0
KRLS 150005Z 05006KT 34/11 A3009 RMK A01 T03360107  RH  026%=      5-min Rain = 0
KRLS 150010Z 06006KT 33/11 A3009 RMK A01 T03330108  RH  026%=      5-min Rain = 0
KRLS 150015Z 06006KT 33/11 A3009 RMK A01 T03320108  RH  026%=      5-min Rain = 0
KRLS 150020Z 05006KT 33/11 A3009 RMK A01 T03330111  RH  027%=      5-min Rain = 0
KRLS 150025Z 04006KT 33/11 A3009 RMK A01 T03320112  RH  027%=      5-min Rain = 0
KRLS 150030Z 07006KT 33/12 A3009 RMK A01 T03310116  RH  028%=      5-min Rain = 0
KRLS 150035Z 07006KT 33/12 A3009 RMK A01 T03280116  RH  028%=      5-min Rain = 0
KRLS 150040Z 07007KT 33/12 A3009 RMK A01 T03270119  RH  029%=      5-min Rain = 0
KRLS 150045Z 07006KT 33/12 A3009 RMK A01 T03260120  RH  030%=      5-min Rain = 0
KRLS 150050Z 07006KT 32/12 A301 RMK A01 T03220121  RH  031%=      5-min Rain = 0
KRLS 150055Z 07006KT 32/12 A301 RMK A01 T03210122  RH  031%=      5-min Rain = 0
KRLS 150100Z 07006KT 32/12 A301 RMK A01 T03180124  RH  032%=      5-min Rain = 0
KRLS 150105Z 07007KT 32/12 A301 RMK A01 T03150124  RH  032%=      5-min Rain = 0
KRLS 150110Z 08007KT 31/13 A301 RMK A01 T03140125  RH  033%=      5-min Rain = 0
KRLS 150115Z 07007KT 31/13 A301 RMK A01 T03090125  RH  034%=      5-min Rain = 0
KRLS 150120Z 07007KT 31/13 A301 RMK A01 T03070127  RH  035%=      5-min Rain = 0
KRLS 150125Z 07007KT 31/13 A301 RMK A01 T03050128  RH  035%=      5-min Rain = 0
KRLS 150130Z 06007KT 30/13 A3011 RMK A01 T03010127  RH  036%=      5-min Rain = 0
KRLS 150135Z 07007KT 30/13 A3011 RMK A01 T02980127  RH  036%=      5-min Rain = 0
KRLS 150140Z 07006KT 30/13 A3011 RMK A01 T02950130  RH  038%=      5-min Rain = 0
KRLS 150145Z 07007KT 29/13 A3012 RMK A01 T02930131  RH  038%=      5-min Rain = 0
KRLS 150150Z 07007KT 29/13 A3012 RMK A01 T02940130  RH  038%=      5-min Rain = 0
KRLS 150155Z 07006KT 29/13 A3012 RMK A01 T02930132  RH  039%=      5-min Rain = 0
KRLS 150200Z 08007KT 29/13 A3013 RMK A01 T02900132  RH  039%=      5-min Rain = 0
KRLS 150205Z 08007KT 29/13 A3013 RMK A01 T02910129  RH  038%=      5-min Rain = 0
KRLS 150210Z 08007KT 29/13 A3013 RMK A01 T02900129  RH  039%=      5-min Rain = 0
KRLS 150215Z 09007KT 29/13 A3014 RMK A01 T02890129  RH  039%=      5-min Rain = 0
KRLS 150220Z 08007KT 29/13 A3014 RMK A01 T02880130  RH  039%=      5-min Rain = 0
KRLS 150225Z 08006KT 29/13 A3014 RMK A01 T02850133  RH  041%=      5-min Rain = 0
KRLS 150230Z 08006KT 28/13 A3014 RMK A01 T02830132  RH  041%=      5-min Rain = 0
KRLS 150235Z 08006KT 28/13 A3014 RMK A01 T02820132  RH  041%=      5-min Rain = 0
KRLS 150240Z 08007KT 28/13 A3014 RMK A01 T02810132  RH  041%=      5-min Rain = 0
KRLS 150245Z 09007KT 28/13 A3014 RMK A01 T02820132  RH  041%=      5-min Rain = 0
KRLS 150250Z 09007KT 28/13 A3014 RMK A01 T02810132  RH  041%=      5-min Rain = 0
KRLS 150255Z 09007KT 28/13 A3015 RMK A01 T02810132  RH  042%=      5-min Rain = 0
KRLS 150300Z 10007KT 28/13 A3015 RMK A01 T02800132  RH  042%=      5-min Rain = 0
KRLS 150305Z 10008KT 28/13 A3015 RMK A01 T02810132  RH  041%=      5-min Rain = 0
KRLS 150310Z 10007KT 28/13 A3015 RMK A01 T02800132  RH  042%=      5-min Rain = 0
KRLS 150315Z 11007KT 28/13 A3016 RMK A01 T02780132  RH  042%=      5-min Rain = 0
KRLS 150320Z 10007KT 28/13 A3016 RMK A01 T02770132  RH  043%=      5-min Rain = 0
KRLS 150325Z 10007KT 27/13 A3016 RMK A01 T02740132  RH  043%=      5-min Rain = 0
KRLS 150330Z 10006KT 27/13 A3016 RMK A01 T02730132  RH  044%=      5-min Rain = 0
KRLS 150335Z 11006KT 27/13 A3016 RMK A01 T02720132  RH  044%=      5-min Rain = 0
KRLS 150340Z 10006KT 27/13 A3016 RMK A01 T02700133  RH  044%=      5-min Rain = 0
KRLS 150345Z 10006KT 27/13 A3016 RMK A01 T02680133  RH  045%=      5-min Rain = 0
KRLS 150350Z 10005KT 27/13 A3017 RMK A01 T02650133  RH  046%=      5-min Rain = 0
KRLS 150355Z 11005KT 27/13 A3017 RMK A01 T02650134  RH  046%=      5-min Rain = 0
KRLS 150400Z 11005KT 26/13 A3017 RMK A01 T02640134  RH  047%=      5-min Rain = 0
KRLS 150405Z 10006KT 26/14 A3017 RMK A01 T02630135  RH  047%=      5-min Rain = 0
KRLS 150410Z 10005KT 26/14 A3017 RMK A01 T02620136  RH  048%=      5-min Rain = 0
KRLS 150415Z 10005KT 26/14 A3017 RMK A01 T02610137  RH  048%=      5-min Rain = 0
KRLS 150420Z 11005KT 26/14 A3017 RMK A01 T02600138  RH  049%=      5-min Rain = 0
KRLS 150425Z 11005KT 26/14 A3017 RMK A01 T02590138  RH  049%=      5-min Rain = 0
KRLS 150430Z 11005KT 26/14 A3017 RMK A01 T02590139  RH  049%=      5-min Rain = 0
KRLS 150435Z 11006KT 26/14 A3017 RMK A01 T02580139  RH  050%=      5-min Rain = 0
KRLS 150440Z 11006KT 26/14 A3017 RMK A01 T02580140  RH  050%=      5-min Rain = 0
KRLS 150445Z 10006KT 26/14 A3017 RMK A01 T02560141  RH  051%=      5-min Rain = 0
KRLS 150450Z 10005KT 25/14 A3017 RMK A01 T02540141  RH  051%=      5-min Rain = 0
KRLS 150455Z 10005KT 25/14 A3017 RMK A01 T02520141  RH  052%=      5-min Rain = 0

Page generated in 0.013 seconds.